Hit Tracker is now ESPN Home Run Tracker! Hit Tracker founder Greg Rybarczyk is now collaborating with the ESPN Stats & Information Group to continue tracking all MLB home runs, and helping baseball fans know "How Far It Really Went!™" Please credit any information on this site to ESPN Stats & Information Group. For more information and analysis on home runs, please contact founder Greg Rybarczyk. E-Mail ESPN Home Run Tracker
Main Page | Ballparks | Park Overlays | Glossary | Highlight Homers | Feedback | Bio | 3 Types of HR's | AAA Home Run Derby Last Updated: July 1, 2015, 11:50 pm PST
Welcome to the ESPN Home Run Tracker! Check out the ESPN MLB Scoreboard throughout the 2015 season! Contact us at grybar@hittrackeronline.com.
Season:
Ballpark detail for Citizens Bank Park
Ballpark # of Home Runs HR per game Avg.
True
Distance
Avg.
Speed
Off
Bat
Avg.
Std.
Dist.
Citizens Bank Park 77 1.83 391.5 103.1 390.1

Scatter Plot of Home Runs Citizens Bank Park
 Overlay Ballpark:
Without range rings   With range rings

2015 Season Home Runs for Citizens Bank Park
Click headers to sort
Date Video Path Hitter Hitter
Team
Pitcher Pitcher
Team
INN Ballpark Type/
Luck
 ^
True
Dist.
Speed
Off
Bat
Elev.
Angle
Horiz.
Angle
Apex Impact Due To: Std.
Dist.
#
Parks
Wind Temp. Alt.
05/14/15 Video View Howard, Ryan PHI Liz, Radhames PIT 5 Citizens Ban... PL 360 96.5 31.8 69.8 97 -6 0 0 365 20
05/16/15 Video View Francoeur, Jeff PHI Bradley, Archie ARI 2 Citizens Ban... PL 380 98.0 30.4 109.0 88 6 1 0 374 16
05/16/15 Video View Goldschmidt, Paul ARI Williams, Jerome PHI 5 Citizens Ban... PL 354 100.5 38.5 111.4 142 -2 0 0 356 13
05/17/15 Video View Ruf, Darin PHI Collmenter, Josh ARI 4 Citizens Ban... PL 383 99.3 28.2 106.2 83 1 1 0 382 23
05/09/15 Video View Lagares, Juan NYM Harang, Aaron PHI 7 Citizens Ban... PL 402 104.4 25.8 105.6 80 -1 0 0 403 30
05/12/15 Video View Harrison, Josh PIT O'Sullivan, Sean PHI 4 Citizens Ban... PL 362 96.9 34.3 113.0 107 -1 3 0 361 13
04/25/15 Video View Simmons, Andrelton ATL Buchanan, David PHI 7 Citizens Ban... PL 411 109.2 20.6 98.8 65 2 0 0 410 25
04/26/15 Video View Callaspo, Alberto ATL Papelbon, Jonathan PHI 9 Citizens Ban... PL 370 98.7 27.0 72.2 76 -1 -1 0 372 13
04/06/15 Video View Pedroia, Dustin BOS Hamels, Cole PHI 1 Citizens Ban... PL 372 97.7 34.5 108.4 118 5 0 0 368 7
04/06/15 Video View Pedroia, Dustin BOS Hamels, Cole PHI 5 Citizens Ban... PL 389 98.1 31.5 109.3 93 14 0 0 375 15
04/06/15 Video View Ramirez, Hanley BOS Hamels, Cole PHI 5 Citizens Ban... PL 407 111.4 21.3 107.0 57 2 0 0 405 30
04/06/15 Video View Ramirez, Hanley BOS Diekman, Jake PHI 9 Citizens Ban... PL 350 95.7 32.6 125.7 83 5 0 0 345 24
04/11/15 Video View Ramos, Wilson WSH Hamels, Cole PHI 4 Citizens Ban... PL 348 94.3 34.7 63.3 97 6 -3 0 345 17
04/22/15 Video View Asche, Cody PHI Cosart, Jarred MIA 2 Citizens Ban... PL 386 103.7 25.6 69.9 74 -1 -1 0 389 30
05/29/15 Video View Tulowitzki, Troy COL Hamels, Cole PHI 1 Citizens Ban... PL 379 100.6 29.8 108.9 97 -9 2 0 387 30
05/30/15 Video View Arenado, Nolan COL Harang, Aaron PHI 2 Citizens Ban... PL 415 106.6 24.5 103.8 73 1 1 0 413 30
05/30/15 Video View Hernandez, Cesar PHI Betancourt, Rafael COL 8 Citizens Ban... PL/L 369 96.9 41.6 64.3 131 46 4 0 319 0
06/03/15 Video View Votto, Joey CIN Diekman, Jake PHI 9 Citizens Ban... PL 416 103.5 25.8 95.1 89 -1 -1 0 418 29
06/03/15 Video View Franco, Maikel PHI Chapman, Aroldis CIN 9 Citizens Ban... PL 410 107.0 23.4 102.4 72 0 0 0 411 30
06/05/15 Video View Franco, Maikel PHI Lincecum, Tim SF 6 Citizens Ban... PL 392 105.3 23.0 104.4 64 0 0 0 393 24
06/06/15 Video View Francoeur, Jeff PHI Bumgarner, Madison SF 4 Citizens Ban... PL 371 101.9 24.5 109.7 65 -1 0 0 372 17
06/06/15 Video View Blanco, Andres PHI Bumgarner, Madison SF 8 Citizens Ban... PL 386 105.5 22.7 106.6 62 0 1 0 386 24
06/07/15 Video View Herrera, Odubel PHI Vogelsong, Ryan SF 3 Citizens Ban... PL 432 106.3 24.9 83.9 82 2 1 0 429 26
06/17/15 Video View Parmelee, Chris BAL Correia, Kevin PHI 1 Citizens Ban... PL 406 105.1 23.7 78.8 73 1 0 0 405 25
06/18/15 Video View Howard, Ryan PHI Norris, Bud BAL 6 Citizens Ban... PL 383 105.5 22.8 71.5 61 0 0 0 382 20
06/19/15 Video View Howard, Ryan PHI Lyons, Tyler STL 5 Citizens Ban... PL 352 97.0 30.0 59.8 78 -3 1 0 354 27
06/19/15 Video View Grichuk, Randal STL De Fratus, Justin PHI 6 Citizens Ban... PL 402 104.5 24.9 104.7 75 -1 1 0 401 30
06/20/15 Video View Asche, Cody PHI Lackey, John STL 2 Citizens Ban... PL 390 100.6 31.0 73.2 104 -2 1 0 391 29
06/21/15 Video View Blanco, Andres PHI Belisle, Matt STL 7 Citizens Ban... PL 401 103.8 26.3 76.4 88 -7 2 0 406 29
06/26/15 Video View den Dekker, Matt WSH Harang, Aaron PHI 6 Citizens Ban... PL 407 108.2 22.7 75.2 67 1 0 0 406 29
05/10/15 Video View Granderson, Curtis NYM Billingsley, Chad PHI 5 Citizens Ban... ND 425 106.0 28.2 76.5 99 0 2 0 423 30
04/06/15 Video View Betts, Mookie BOS Hamels, Cole PHI 3 Citizens Ban... ND 401 106.2 27.1 119.0 75 7 0 0 394 30
04/10/15 Video View Taylor, Michael WSH Williams, Jerome PHI 1 Citizens Ban... ND 403 109.3 26.6 124.9 73 4 -1 0 400 30
04/12/15 Video View Ruf, Darin PHI Cedeno, Xavier WSH 7 Citizens Ban... ND 406 103.8 29.0 106.9 96 1 -1 0 406 30
04/21/15 Video View Stanton, Giancarlo MIA Williams, Jerome PHI 4 Citizens Ban... ND 454 112.8 21.8 86.1 86 -1 0 0 456 30
05/29/15 Video View Tulowitzki, Troy COL Hamels, Cole PHI 3 Citizens Ban... ND 420 108.8 24.9 105.8 82 -3 1 0 422 30
05/30/15 Video View Paulsen, Ben COL Garcia, Luis PHI 7 Citizens Ban... ND 413 101.2 33.0 71.5 104 23 3 0 388 30
06/02/15 Video View Franco, Maikel PHI Diaz, Jumbo CIN 8 Citizens Ban... ND 423 111.2 28.6 119.6 93 2 -3 0 424 30
06/05/15 Video View Howard, Ryan PHI Lincecum, Tim SF 1 Citizens Ban... ND 431 106.8 27.2 79.5 100 -1 0 0 431 30
06/05/15 Video View Maxwell, Justin SF Williams, Jerome PHI 4 Citizens Ban... ND 425 111.8 26.1 115.7 82 0 0 0 425 30
06/17/15 Video View Snider, Travis BAL Correia, Kevin PHI 5 Citizens Ban... ND 440 109.8 24.4 79.8 87 0 0 0 440 30
06/20/15 Video View Grichuk, Randal STL Rosin, Seth PHI 9 Citizens Ban... ND 390 103.3 30.9 119.1 93 1 1 0 388 30
06/28/15 Video View Francoeur, Jeff PHI Strasburg, Stephen WSH 2 Citizens Ban... ND 392 102.7 31.0 114.8 101 1 1 0 390 30
06/28/15 Video View Desmond, Ian WSH Gonzalez, Severino PHI 4 Citizens Ban... ND 453 111.7 23.8 97.7 92 -1 0 0 453 30
06/28/15 Video View Lobaton, Jose WSH Gonzalez, Severino PHI 6 Citizens Ban... ND 406 107.5 33.5 66.2 126 -4 1 0 409 30
07/01/15 Video View Lind, Adam MIL Harang, Aaron PHI 1 Citizens Ban... ND 397 105.8 24.4 71.7 69 0 1 0 397 30
05/16/15 Video View Tomas, Yasmany ARI Giles, Ken PHI 8 Citizens Ban... JE 374 96.4 30.2 77.0 92 1 0 0 374 5
05/17/15 Video View Franco, Maikel PHI Delgado, Randall ARI 8 Citizens Ban... JE 367 95.8 33.4 106.6 105 1 2 0 364 4
05/10/15 Video View Billingsley, Chad PHI Colon, Bartolo NYM 3 Citizens Ban... JE 346 98.6 26.8 126.1 61 2 1 0 343 10
05/11/15 Video View Marte, Starling PIT Williams, Jerome PHI 3 Citizens Ban... JE 403 106.5 21.0 96.8 61 -1 0 0 404 12
05/11/15 Video View Herrera, Odubel PHI Melancon, Mark PIT 9 Citizens Ban... JE 380 99.9 25.8 75.0 72 2 0 0 378 5
05/12/15 Video View McCutchen, Andrew PIT Garcia, Luis PHI 7 Citizens Ban... JE 401 101.9 25.0 100.0 76 4 0 0 396 8
05/08/15 Video View Howard, Ryan PHI Harvey, Matt NYM 4 Citizens Ban... JE 395 98.7 30.8 100.2 101 5 0 0 390 10
04/26/15 Video View Howard, Ryan PHI Cahill, Trevor ATL 1 Citizens Ban... JE 391 104.5 22.5 78.4 64 0 -1 0 392 16
04/25/15 Video View Howard, Ryan PHI Miller, Shelby ATL 4 Citizens Ban... JE/L 421 112.0 17.3 91.7 57 7 0 0 414 4
04/08/15 Video View Francoeur, Jeff PHI Porcello, Rick BOS 6 Citizens Ban... JE 395 100.5 25.8 96.4 85 -1 -1 0 398 15
04/12/15 Video View Harper, Bryce WSH O'Sullivan, Sean PHI 1 Citizens Ban... JE 366 97.1 28.3 111.1 74 4 -1 0 362 3
04/21/15 Video View Galvis, Freddy PHI Haren, Dan MIA 2 Citizens Ban... JE 354 104.6 23.0 57.9 53 -1 0 0 356 18
04/21/15 Video View Howard, Ryan PHI Haren, Dan MIA 6 Citizens Ban... JE 412 102.0 27.4 87.7 97 -1 -1 0 415 22
04/23/15 Video View Stanton, Giancarlo MIA De Fratus, Justin PHI 6 Citizens Ban... JE 369 113.6 19.9 124.2 46 -1 -2 0 372 24
05/29/15 Video View Paulsen, Ben COL Garcia, Luis PHI 9 Citizens Ban... JE 403 103.2 24.0 97.9 75 0 1 0 403 19
05/30/15 Video View McKenry, Michael COL Harang, Aaron PHI 2 Citizens Ban... JE 380 106.0 22.2 108.7 56 0 0 0 380 12
05/31/15 Video View Arenado, Nolan COL Williams, Jerome PHI 1 Citizens Ban... JE 404 99.5 29.9 97.1 99 4 2 0 398 11
05/31/15 Video View LeMahieu, DJ COL Williams, Jerome PHI 5 Citizens Ban... JE 365 97.8 27.7 114.4 69 6 1 0 358 1
06/02/15 Video View Utley, Chase PHI Cueto, Johnny CIN 6 Citizens Ban... JE 393 105.8 22.2 76.6 64 2 0 0 392 19
06/05/15 Video View Duffy, Matt SF Williams, Jerome PHI 2 Citizens Ban... JE 364 98.4 26.5 70.2 71 0 0 0 364 8
06/05/15 Video View Posey, Buster SF Garcia, Luis PHI 7 Citizens Ban... JE 420 104.1 24.4 90.3 83 0 1 0 420 23
06/07/15 Video View Franco, Maikel PHI Affeldt, Jeremy SF 8 Citizens Ban... JE 434 108.7 22.6 95.5 71 1 0 0 433 28
06/17/15 Video View Galvis, Freddy PHI Jimenez, Ubaldo BAL 7 Citizens Ban... JE 378 98.6 27.3 75.6 81 0 0 0 378 7
06/18/15 Video View Machado, Manny BAL O'Sullivan, Sean PHI 1 Citizens Ban... JE 342 94.2 33.6 64.6 97 -4 -1 0 347 11
06/19/15 Video View Wong, Kolten STL Aumont, Phillippe PHI 2 Citizens Ban... JE 355 102.1 24.0 61.2 56 0 0 -1 355 11
06/19/15 Video View Molina, Yadier STL Aumont, Phillippe PHI 2 Citizens Ban... JE 379 104.5 23.3 109.6 61 0 1 0 378 18
06/20/15 Video View Grichuk, Randal STL Harang, Aaron PHI 6 Citizens Ban... JE 418 105.4 23.1 84.1 76 3 0 0 416 20
06/21/15 Video View Peralta, Jhonny STL Morgan, Adam PHI 4 Citizens Ban... JE/L 374 97.5 27.7 78.4 86 -6 1 0 378 6
06/21/15 Video View Heyward, Jason STL Papelbon, Jonathan PHI 9 Citizens Ban... JE 349 95.4 32.3 112.7 96 -11 2 0 357 12
06/26/15 Video View Revere, Ben PHI Scherzer, Max WSH 8 Citizens Ban... JE 372 97.5 33.2 76.0 115 -4 0 0 376 9
06/30/15 Video View Ruiz, Carlos PHI Jungmann, Taylor MIL 6 Citizens Ban... JE 375 104.0 22.9 108.2 59 0 0 0 375 11


About HitTracker | Contact Us
© 2006-2015 HitTrackerOnline